Machias, Maine
Current Conditions -  °F | °C
As of 2:55 PM on Monday 22 Dec 2014 (Local Time) from KBHB Reporting Station
Overcast Overcast  
Wind Chill: 37°   Ceiling: 4200
Heat Index: 37°   Visibility: 10mi
Dew Point: 32°   Wind: 3mph
Humidity: 81%   Direction: 50°NE
Pressure: 30.4"   Gusts: NA
Location:  44.72°N, 67.46°W
Report Text: KBHB 221955Z AUTO 05003KT 10SM OVC042 03/00 A3040 RMK AO1
Loading
Personal Weather Stations






























Interactive Weather Map New forecast layout! Learn more

10-Day Weather Forecast

Advertisements
Track Severe Weather on mobile